MMD1912 EKSB-EKRK
Flight info
| Callsign | MMD1912 |
|---|---|
| Flight time | 0h 25m |
| Altitude | 15000 |
| Route | TALSA P729 KOR |
| Aircraft | PC12/L-SDFGRWY/S |
Departure
| Time | 2026-04-27 13:00 |
|---|---|
| Airport | Sønderborg Airport (EKSB) |
Arrival
| Time | 2026-04-27 13:25 |
|---|---|
| Airport | Copenhagen Roskilde Airport (EKRK) |
| Time | Latitude | Longitude | Altitude | Speed | Heading |
|---|---|---|---|---|---|
| 2026-04-27 12:55 | 54.96300 | 9.78711 | 35 ft | 0 kts | 322° |
| 2026-04-27 12:57 | 54.96329 | 9.78725 | 35 ft | 15 kts | 40° |
| 2026-04-27 12:58 | 54.96446 | 9.78954 | 35 ft | 32 kts | 50° |
| 2026-04-27 12:58 | 54.96456 | 9.79173 | 37 ft | 24 kts | 148° |
| 2026-04-27 12:58 | 54.96252 | 9.79461 | 35 ft | 53 kts | 142° |
| 2026-04-27 12:58 | 54.95935 | 9.79929 | 36 ft | 58 kts | 141° |
| 2026-04-27 12:59 | 54.95728 | 9.80242 | 36 ft | 20 kts | 138° |
| 2026-04-27 12:59 | 54.95694 | 9.80286 | 36 ft | 11 kts | 323° |
| 2026-04-27 12:59 | 54.95871 | 9.80019 | 37 ft | 66 kts | 319° |
| 2026-04-27 12:59 | 54.96327 | 9.79324 | 203 ft | 101 kts | 316° |
| 2026-04-27 13:00 | 54.96912 | 9.78370 | 534 ft | 130 kts | 320° |
| 2026-04-27 13:00 | 54.97846 | 9.78005 | 1000 ft | 152 kts | 3° |
| 2026-04-27 13:00 | 54.98955 | 9.77970 | 1523 ft | 167 kts | 9° |
| 2026-04-27 13:00 | 54.99878 | 9.79156 | 2062 ft | 181 kts | 64° |
| 2026-04-27 13:01 | 55.00142 | 9.81323 | 2775 ft | 183 kts | 79° |
| 2026-04-27 13:01 | 55.00475 | 9.83394 | 3455 ft | 178 kts | 65° |
| 2026-04-27 13:01 | 55.01071 | 9.85315 | 4127 ft | 182 kts | 58° |
| 2026-04-27 13:01 | 55.01736 | 9.87227 | 4807 ft | 187 kts | 57° |
| 2026-04-27 13:02 | 55.02406 | 9.89182 | 5484 ft | 188 kts | 58° |
| 2026-04-27 13:02 | 55.03075 | 9.91167 | 6152 ft | 191 kts | 57° |
| 2026-04-27 13:02 | 55.03754 | 9.93177 | 6822 ft | 194 kts | 57° |
| 2026-04-27 13:02 | 55.04445 | 9.95225 | 7462 ft | 197 kts | 57° |
| 2026-04-27 13:03 | 55.05144 | 9.97296 | 8113 ft | 200 kts | 56° |
| 2026-04-27 13:03 | 55.05852 | 9.99395 | 8777 ft | 202 kts | 56° |
| 2026-04-27 13:03 | 55.06569 | 10.01523 | 9457 ft | 205 kts | 56° |
| 2026-04-27 13:03 | 55.07293 | 10.03675 | 10152 ft | 207 kts | 55° |
| 2026-04-27 13:04 | 55.08025 | 10.05855 | 10786 ft | 209 kts | 55° |
| 2026-04-27 13:04 | 55.08765 | 10.08057 | 11435 ft | 212 kts | 54° |
| 2026-04-27 13:04 | 55.09512 | 10.10282 | 12088 ft | 212 kts | 54° |
| 2026-04-27 13:04 | 55.10256 | 10.12506 | 12754 ft | 213 kts | 54° |
| 2026-04-27 13:05 | 55.11008 | 10.14744 | 13448 ft | 214 kts | 55° |
| 2026-04-27 13:05 | 55.11760 | 10.16994 | 14145 ft | 215 kts | 55° |
| 2026-04-27 13:05 | 55.12508 | 10.19233 | 14761 ft | 216 kts | 55° |
| 2026-04-27 13:05 | 55.13282 | 10.21544 | 15219 ft | 227 kts | 55° |
| 2026-04-27 13:06 | 55.14121 | 10.24044 | 15265 ft | 249 kts | 56° |
| 2026-04-27 13:06 | 55.15023 | 10.26755 | 15267 ft | 265 kts | 56° |
| 2026-04-27 13:06 | 55.15963 | 10.29594 | 15266 ft | 273 kts | 56° |
| 2026-04-27 13:06 | 55.16924 | 10.32489 | 15270 ft | 277 kts | 56° |
| 2026-04-27 13:07 | 55.17897 | 10.35417 | 15270 ft | 279 kts | 56° |
| 2026-04-27 13:07 | 55.18874 | 10.38362 | 15268 ft | 280 kts | 56° |
| 2026-04-27 13:07 | 55.19852 | 10.41311 | 15268 ft | 280 kts | 56° |
| 2026-04-27 13:07 | 55.20829 | 10.44261 | 15269 ft | 280 kts | 56° |
| 2026-04-27 13:08 | 55.21806 | 10.47220 | 15270 ft | 281 kts | 56° |
| 2026-04-27 13:08 | 55.22783 | 10.50181 | 15271 ft | 281 kts | 57° |
| 2026-04-27 13:08 | 55.23759 | 10.53138 | 15269 ft | 280 kts | 57° |
| 2026-04-27 13:08 | 55.24734 | 10.56096 | 15270 ft | 281 kts | 57° |
| 2026-04-27 13:09 | 55.25709 | 10.59063 | 15267 ft | 281 kts | 57° |
| 2026-04-27 13:09 | 55.26684 | 10.62034 | 15267 ft | 280 kts | 57° |
| 2026-04-27 13:09 | 55.27610 | 10.65038 | 15262 ft | 282 kts | 64° |
| 2026-04-27 13:09 | 55.28197 | 10.68334 | 15259 ft | 284 kts | 71° |
| 2026-04-27 13:10 | 55.28751 | 10.71612 | 15264 ft | 284 kts | 70° |
| 2026-04-27 13:10 | 55.29329 | 10.74922 | 15264 ft | 284 kts | 70° |
| 2026-04-27 13:10 | 55.29902 | 10.78243 | 15263 ft | 284 kts | 70° |
| 2026-04-27 13:10 | 55.30468 | 10.81569 | 15264 ft | 284 kts | 70° |
| 2026-04-27 13:11 | 55.31033 | 10.84887 | 15268 ft | 283 kts | 70° |
| 2026-04-27 13:11 | 55.31597 | 10.88197 | 15267 ft | 282 kts | 70° |
| 2026-04-27 13:11 | 55.32158 | 10.91497 | 15265 ft | 282 kts | 70° |
| 2026-04-27 13:11 | 55.32724 | 10.94829 | 15040 ft | 288 kts | 70° |
| 2026-04-27 13:12 | 55.33299 | 10.98226 | 14681 ft | 290 kts | 71° |
| 2026-04-27 13:12 | 55.33858 | 11.01601 | 14296 ft | 286 kts | 71° |
| 2026-04-27 13:12 | 55.34406 | 11.04936 | 13904 ft | 283 kts | 71° |
| 2026-04-27 13:12 | 55.34952 | 11.08227 | 13524 ft | 280 kts | 71° |
| 2026-04-27 13:13 | 55.35496 | 11.11500 | 13158 ft | 278 kts | 71° |
| 2026-04-27 13:13 | 55.35852 | 11.13657 | 12909 ft | 277 kts | 70° |
| 2026-04-27 13:13 | 55.36386 | 11.16899 | 12541 ft | 276 kts | 70° |
| 2026-04-27 13:13 | 55.36917 | 11.20126 | 12178 ft | 274 kts | 70° |
| 2026-04-27 13:14 | 55.37445 | 11.23340 | 11820 ft | 273 kts | 70° |
| 2026-04-27 13:14 | 55.37970 | 11.26542 | 11461 ft | 272 kts | 70° |
| 2026-04-27 13:14 | 55.38492 | 11.29732 | 11103 ft | 271 kts | 70° |
| 2026-04-27 13:14 | 55.39012 | 11.32909 | 10751 ft | 270 kts | 70° |
| 2026-04-27 13:15 | 55.39529 | 11.36083 | 10393 ft | 269 kts | 70° |
| 2026-04-27 13:15 | 55.40041 | 11.39236 | 10011 ft | 267 kts | 70° |
| 2026-04-27 13:15 | 55.40550 | 11.42361 | 9653 ft | 264 kts | 70° |
| 2026-04-27 13:15 | 55.41050 | 11.45447 | 9304 ft | 261 kts | 71° |
| 2026-04-27 13:16 | 55.41552 | 11.48509 | 8971 ft | 259 kts | 71° |
| 2026-04-27 13:16 | 55.42027 | 11.51551 | 8661 ft | 257 kts | 73° |
| 2026-04-27 13:16 | 55.42458 | 11.54612 | 8326 ft | 257 kts | 73° |
| 2026-04-27 13:16 | 55.42893 | 11.57658 | 7991 ft | 256 kts | 73° |
| 2026-04-27 13:17 | 55.43337 | 11.60683 | 7653 ft | 254 kts | 73° |
| 2026-04-27 13:17 | 55.43778 | 11.63685 | 7311 ft | 252 kts | 73° |
| 2026-04-27 13:17 | 55.44211 | 11.66663 | 6985 ft | 250 kts | 73° |
| 2026-04-27 13:17 | 55.44640 | 11.69620 | 6643 ft | 248 kts | 73° |
| 2026-04-27 13:18 | 55.45065 | 11.72551 | 6313 ft | 246 kts | 74° |
| 2026-04-27 13:18 | 55.45485 | 11.75451 | 5985 ft | 243 kts | 74° |
| 2026-04-27 13:18 | 55.45901 | 11.78330 | 5666 ft | 241 kts | 73° |
| 2026-04-27 13:18 | 55.46314 | 11.81188 | 5346 ft | 239 kts | 75° |
| 2026-04-27 13:19 | 55.46686 | 11.83934 | 5033 ft | 224 kts | 80° |
| 2026-04-27 13:19 | 55.46630 | 11.86715 | 4725 ft | 230 kts | 98° |
| 2026-04-27 13:19 | 55.46320 | 11.89461 | 4423 ft | 222 kts | 99° |
| 2026-04-27 13:19 | 55.46038 | 11.92055 | 4137 ft | 211 kts | 98° |
| 2026-04-27 13:20 | 55.45771 | 11.94573 | 3841 ft | 208 kts | 98° |
| 2026-04-27 13:20 | 55.45656 | 11.97019 | 3547 ft | 194 kts | 80° |
| 2026-04-27 13:20 | 55.46083 | 11.99177 | 3302 ft | 182 kts | 58° |
| 2026-04-27 13:20 | 55.46900 | 12.00816 | 3055 ft | 177 kts | 36° |
| 2026-04-27 13:21 | 55.47893 | 12.01886 | 2842 ft | 167 kts | 30° |
| 2026-04-27 13:21 | 55.48869 | 12.02920 | 2606 ft | 157 kts | 29° |
| 2026-04-27 13:21 | 55.49771 | 12.03874 | 2428 ft | 141 kts | 28° |
| 2026-04-27 13:21 | 55.50590 | 12.04735 | 2238 ft | 136 kts | 28° |
| 2026-04-27 13:22 | 55.51331 | 12.05514 | 1999 ft | 105 kts | 29° |
| 2026-04-27 13:22 | 55.51944 | 12.06169 | 1810 ft | 98 kts | 27° |
| 2026-04-27 13:22 | 55.52511 | 12.06752 | 1690 ft | 89 kts | 27° |
| 2026-04-27 13:22 | 55.53034 | 12.07313 | 1513 ft | 89 kts | 28° |
| 2026-04-27 13:23 | 55.53548 | 12.07858 | 1406 ft | 84 kts | 30° |
| 2026-04-27 13:23 | 55.54037 | 12.08389 | 1230 ft | 83 kts | 28° |
| 2026-04-27 13:23 | 55.54535 | 12.08885 | 1109 ft | 84 kts | 26° |
| 2026-04-27 13:23 | 55.55046 | 12.09446 | 948 ft | 88 kts | 28° |
| 2026-04-27 13:24 | 55.55563 | 12.09984 | 769 ft | 85 kts | 23° |
| 2026-04-27 13:24 | 55.56071 | 12.10532 | 637 ft | 88 kts | 25° |
| 2026-04-27 13:24 | 55.56607 | 12.11070 | 454 ft | 88 kts | 23° |
| 2026-04-27 13:24 | 55.57114 | 12.11643 | 318 ft | 83 kts | 22° |
| 2026-04-27 13:25 | 55.57609 | 12.12149 | 215 ft | 83 kts | 24° |
| 2026-04-27 13:25 | 55.58108 | 12.12669 | 142 ft | 81 kts | 23° |
| 2026-04-27 13:25 | 55.58526 | 12.13104 | 140 ft | 50 kts | 31° |
| 2026-04-27 13:25 | 55.58703 | 12.13257 | 141 ft | 16 kts | 292° |
| 2026-04-27 13:26 | 55.58754 | 12.13070 | 139 ft | 14 kts | 298° |
| 2026-04-27 13:26 | 55.58860 | 12.13027 | 139 ft | 19 kts | 30° |
| 2026-04-27 13:26 | 55.58932 | 12.12970 | 139 ft | 21 kts | 295° |
| 2026-04-27 13:26 | 55.58958 | 12.12885 | 139 ft | 8 kts | 313° |
| 2026-04-27 13:27 | 55.58998 | 12.12867 | 139 ft | 0 kts | 258° |